Terminal Aerodrome Forecast
Issued by NWS

Home | Current Version | Previous Version | Text Only | Print | Product List | Glossary On
Versions: 1 2 3 4 5 6 7 8 9 10 11 12 13 14
000
FTUS46 KLOX 031618 AAB
TAFSBP
TAF AMD
KSBP 031618Z 0316/0412 00000KT P6SM SCT004
     FM031800 VRB03KT P6SM SCT010
     FM032000 29009KT P6SM SKC
     FM040400 VRB03KT P6SM SKC
     FM040800 VRB03KT P6SM OVC005=

USA.gov is the U.S. government's official web portal to all federal, state and local government web resources and services.